createdAt,value
2018-12-02T00:00:45.155Z,0
2018-12-02T00:01:53.817Z,0
2018-12-02T00:03:02.497Z,0
2018-12-02T00:04:11.165Z,0
2018-12-02T00:05:19.853Z,0
2018-12-02T00:06:28.771Z,0
2018-12-02T00:07:37.444Z,0
2018-12-02T00:08:46.107Z,0
2018-12-02T00:09:54.784Z,0
2018-12-02T00:11:03.454Z,0
2018-12-02T00:12:12.126Z,0
2018-12-02T00:13:20.803Z,0
2018-12-02T00:14:29.480Z,0
2018-12-02T00:15:38.149Z,0
2018-12-02T00:16:46.813Z,0
2018-12-02T00:17:55.488Z,0
2018-12-02T00:19:04.180Z,0
2018-12-02T00:20:12.850Z,0
2018-12-02T00:21:21.528Z,0
2018-12-02T00:22:30.192Z,0
2018-12-02T00:23:38.874Z,0
2018-12-02T00:24:47.537Z,0
2018-12-02T00:25:56.472Z,0
2018-12-02T00:27:05.135Z,0
2018-12-02T00:28:13.817Z,0
2018-12-02T00:29:22.476Z,0
2018-12-02T00:30:31.147Z,0
2018-12-02T00:31:39.816Z,0
2018-12-02T00:32:48.493Z,0
2018-12-02T00:33:57.161Z,0
2018-12-02T00:35:05.823Z,0
2018-12-02T00:36:14.494Z,0
2018-12-02T00:37:23.676Z,0
2018-12-02T00:38:32.356Z,0
2018-12-02T00:39:41.035Z,0
2018-12-02T00:40:49.707Z,0
2018-12-02T00:41:58.627Z,0
2018-12-02T00:43:07.310Z,0
2018-12-02T00:44:15.976Z,0
2018-12-02T00:45:24.658Z,0
2018-12-02T00:46:33.324Z,0
2018-12-02T00:47:42.009Z,0
2018-12-02T00:48:50.678Z,0
2018-12-02T00:49:59.348Z,0
2018-12-02T00:51:08.010Z,0
2018-12-02T00:52:16.689Z,0
2018-12-02T00:53:25.360Z,0
2018-12-02T00:54:34.032Z,0
2018-12-02T00:55:42.710Z,0
2018-12-02T00:56:51.380Z,0
2018-12-02T00:58:00.056Z,0
2018-12-02T00:59:08.739Z,0
2018-12-02T01:00:17.432Z,0
2018-12-02T01:01:26.098Z,0
2018-12-02T01:02:34.776Z,0
2018-12-02T01:03:43.705Z,0
2018-12-02T01:04:52.387Z,0
2018-12-02T01:06:01.046Z,0
2018-12-02T01:07:09.987Z,0
2018-12-02T01:08:18.654Z,0
2018-12-02T01:09:27.333Z,0
2018-12-02T01:10:36.002Z,0
2018-12-02T01:11:44.671Z,0
2018-12-02T01:12:53.337Z,0
2018-12-02T01:14:02.001Z,0
2018-12-02T01:15:10.931Z,0
2018-12-02T01:16:19.604Z,0
2018-12-02T01:17:28.269Z,0
2018-12-02T01:18:36.934Z,0
2018-12-02T01:19:45.622Z,0
2018-12-02T01:20:54.296Z,0
2018-12-02T01:22:02.962Z,0
2018-12-02T01:23:11.630Z,0
2018-12-02T01:24:20.307Z,0
2018-12-02T01:25:29.042Z,0
2018-12-02T01:26:37.712Z,0
2018-12-02T01:27:46.451Z,0
2018-12-02T01:28:55.637Z,0
2018-12-02T01:30:04.735Z,0
2018-12-02T01:31:13.534Z,0
2018-12-02T01:32:22.666Z,0
2018-12-02T01:33:31.409Z,0
2018-12-02T01:34:40.104Z,0
2018-12-02T01:35:48.820Z,0
2018-12-02T01:36:58.088Z,0
2018-12-02T01:38:07.461Z,0
2018-12-02T01:39:16.129Z,0
2018-12-02T01:40:25.113Z,0
2018-12-02T01:41:33.791Z,0
2018-12-02T01:42:42.706Z,0
2018-12-02T01:43:51.374Z,0
2018-12-02T01:45:00.307Z,0
2018-12-02T01:46:08.989Z,0
2018-12-02T01:47:17.657Z,0
2018-12-02T01:48:26.330Z,0
2018-12-02T01:49:35.312Z,0
2018-12-02T01:50:43.986Z,0
2018-12-02T01:51:52.661Z,0
2018-12-02T01:53:01.843Z,0
2018-12-02T01:54:10.516Z,0
2018-12-02T01:55:19.185Z,0
2018-12-02T01:56:27.858Z,0
2018-12-02T01:57:36.531Z,0
2018-12-02T01:58:45.210Z,0
2018-12-02T01:59:53.877Z,0
2018-12-02T02:01:02.806Z,0
2018-12-02T02:02:11.477Z,0
2018-12-02T02:03:20.159Z,0
2018-12-02T02:04:28.830Z,0
2018-12-02T02:05:37.504Z,0
2018-12-02T02:06:46.175Z,0
2018-12-02T02:07:55.360Z,0
2018-12-02T02:09:04.028Z,0
2018-12-02T02:10:12.688Z,0
2018-12-02T02:11:21.630Z,0
2018-12-02T02:12:30.304Z,0
2018-12-02T02:13:38.977Z,0
2018-12-02T02:14:47.640Z,0
2018-12-02T02:15:56.317Z,0
2018-12-02T02:17:04.986Z,0
2018-12-02T02:18:13.724Z,0
2018-12-02T02:19:22.392Z,0
2018-12-02T02:20:31.068Z,0
2018-12-02T02:21:39.734Z,0
2018-12-02T02:22:48.670Z,0
2018-12-02T02:23:58.388Z,0
2018-12-02T02:25:07.063Z,0
2018-12-02T02:26:15.729Z,0
2018-12-02T02:27:24.398Z,0
2018-12-02T02:28:33.089Z,0
2018-12-02T02:29:42.013Z,0
2018-12-02T02:30:50.689Z,0
2018-12-02T02:31:59.612Z,0
2018-12-02T02:33:08.554Z,0
2018-12-02T02:34:17.231Z,0
2018-12-02T02:35:25.921Z,0
2018-12-02T02:36:34.611Z,0
2018-12-02T02:37:43.305Z,0
2018-12-02T02:38:52.233Z,0
2018-12-02T02:40:01.164Z,0
2018-12-02T02:41:09.828Z,0
2018-12-02T02:42:18.783Z,0
2018-12-02T02:43:27.459Z,0
2018-12-02T02:44:36.138Z,0
2018-12-02T02:45:44.815Z,0
2018-12-02T02:46:53.476Z,0
2018-12-02T02:48:02.415Z,0
2018-12-02T02:49:11.087Z,0
2018-12-02T02:50:19.772Z,0
2018-12-02T02:51:28.443Z,0
2018-12-02T02:52:37.123Z,0
2018-12-02T02:53:46.046Z,0
2018-12-02T02:54:54.738Z,0
2018-12-02T02:56:03.425Z,0
2018-12-02T02:57:12.357Z,0
2018-12-02T02:58:21.043Z,0
2018-12-02T02:59:29.724Z,0
2018-12-02T03:00:38.393Z,0
2018-12-02T03:01:47.061Z,0
2018-12-02T03:02:55.749Z,0
2018-12-02T03:04:04.460Z,0
2018-12-02T03:05:13.151Z,0
2018-12-02T03:06:21.825Z,0
2018-12-02T03:07:30.778Z,0
2018-12-02T03:08:39.969Z,0
2018-12-02T03:09:48.657Z,0
2018-12-02T03:10:57.580Z,0
2018-12-02T03:12:06.253Z,0
2018-12-02T03:13:14.914Z,0
2018-12-02T03:14:23.866Z,0
2018-12-02T03:15:32.537Z,0
2018-12-02T03:16:41.479Z,0
2018-12-02T03:17:50.437Z,0
2018-12-02T03:18:59.376Z,0
2018-12-02T03:20:08.573Z,0
2018-12-02T03:21:17.254Z,0
2018-12-02T03:22:25.928Z,0
2018-12-02T03:23:34.615Z,0
2018-12-02T03:24:43.288Z,0
2018-12-02T03:25:51.959Z,0
2018-12-02T03:27:00.643Z,0
2018-12-02T03:28:09.337Z,0
2018-12-02T03:29:18.023Z,0
2018-12-02T03:30:26.859Z,0
2018-12-02T03:31:35.582Z,0
2018-12-02T03:32:44.779Z,0
2018-12-02T03:33:53.998Z,0
2018-12-02T03:35:02.924Z,0
2018-12-02T03:36:11.864Z,0
2018-12-02T03:37:20.573Z,0
2018-12-02T03:38:29.512Z,0
2018-12-02T03:39:38.190Z,0
2018-12-02T03:40:46.862Z,0
2018-12-02T03:41:55.574Z,0
2018-12-02T03:43:04.250Z,0
2018-12-02T03:44:12.924Z,0
2018-12-02T03:45:21.599Z,0
2018-12-02T03:46:30.297Z,0
2018-12-02T03:47:38.973Z,0
2018-12-02T03:48:47.911Z,0
2018-12-02T03:49:56.600Z,0
2018-12-02T03:51:05.285Z,0
2018-12-02T03:52:14.205Z,0
2018-12-02T03:53:22.880Z,0
2018-12-02T03:54:31.544Z,0
2018-12-02T03:55:40.217Z,0
2018-12-02T03:56:48.891Z,0
2018-12-02T03:57:57.826Z,0
2018-12-02T03:59:06.526Z,0
2018-12-02T04:00:15.195Z,0
2018-12-02T04:01:23.875Z,0
2018-12-02T04:02:32.547Z,0
2018-12-02T04:03:41.235Z,0
2018-12-02T04:04:49.911Z,0
2018-12-02T04:05:58.653Z,0
2018-12-02T04:07:07.580Z,0
2018-12-02T04:08:16.260Z,0
2018-12-02T04:09:24.928Z,0
2018-12-02T04:10:33.613Z,0
2018-12-02T04:11:42.557Z,0
2018-12-02T04:12:51.512Z,0
2018-12-02T04:14:00.192Z,0
2018-12-02T04:15:08.867Z,0
2018-12-02T04:16:17.549Z,0
2018-12-02T04:17:26.226Z,0
2018-12-02T04:18:34.898Z,0
2018-12-02T04:19:43.568Z,0
2018-12-02T04:20:52.252Z,0
2018-12-02T04:22:00.924Z,0
2018-12-02T04:23:09.840Z,0
2018-12-02T04:24:18.779Z,0
2018-12-02T04:25:27.982Z,0
2018-12-02T04:26:37.177Z,0
2018-12-02T04:27:45.851Z,0
2018-12-02T04:28:54.530Z,0
2018-12-02T04:30:03.207Z,0
2018-12-02T04:31:12.394Z,0
2018-12-02T04:32:21.076Z,0
2018-12-02T04:33:30.015Z,0
2018-12-02T04:34:38.685Z,0
2018-12-02T04:35:47.357Z,0
2018-12-02T04:36:56.059Z,0
2018-12-02T04:38:04.736Z,0
2018-12-02T04:39:13.409Z,0
2018-12-02T04:40:22.085Z,0
2018-12-02T04:41:30.776Z,0
2018-12-02T04:42:39.462Z,0
2018-12-02T04:43:48.416Z,0
2018-12-02T04:44:57.348Z,0
2018-12-02T04:46:06.047Z,0
2018-12-02T04:47:14.715Z,0
2018-12-02T04:48:23.395Z,0
2018-12-02T04:49:32.061Z,0
2018-12-02T04:50:40.741Z,0
2018-12-02T04:51:49.410Z,0
2018-12-02T04:52:58.092Z,0
2018-12-02T04:54:06.776Z,0
2018-12-02T04:55:15.703Z,0
2018-12-02T04:56:24.383Z,0
2018-12-02T04:57:33.314Z,0
2018-12-02T04:58:41.990Z,0
2018-12-02T04:59:51.685Z,0
2018-12-02T05:01:00.377Z,0
2018-12-02T05:02:09.045Z,0
2018-12-02T05:03:17.721Z,0
2018-12-02T05:04:26.402Z,0
2018-12-02T05:05:35.074Z,0
2018-12-02T05:06:44.015Z,0
2018-12-02T05:07:52.731Z,0
2018-12-02T05:09:01.443Z,0
2018-12-02T05:10:10.140Z,0
2018-12-02T05:11:19.068Z,0
2018-12-02T05:12:27.743Z,0
2018-12-02T05:13:36.442Z,0
2018-12-02T05:14:45.110Z,0
2018-12-02T05:15:53.786Z,0
2018-12-02T05:17:02.969Z,0
2018-12-02T05:18:11.653Z,0
2018-12-02T05:19:20.571Z,0
2018-12-02T05:20:29.250Z,0
2018-12-02T05:21:37.917Z,0
2018-12-02T05:22:46.596Z,0
2018-12-02T05:23:55.520Z,0
2018-12-02T05:25:04.192Z,0
2018-12-02T05:26:12.852Z,0
2018-12-02T05:27:21.530Z,0
2018-12-02T05:28:30.219Z,0
2018-12-02T05:29:38.901Z,0
2018-12-02T05:30:47.594Z,0
2018-12-02T05:31:56.261Z,0
2018-12-02T05:33:04.947Z,0
2018-12-02T05:34:13.613Z,0
2018-12-02T05:35:22.557Z,0
2018-12-02T05:36:31.222Z,0
2018-12-02T05:37:39.899Z,0
2018-12-02T05:38:48.572Z,0
2018-12-02T05:39:57.249Z,0
2018-12-02T05:41:05.909Z,0
2018-12-02T05:42:14.846Z,0
2018-12-02T05:43:23.510Z,0
2018-12-02T05:44:32.187Z,0
2018-12-02T05:45:40.855Z,0
2018-12-02T05:46:49.524Z,0
2018-12-02T05:47:58.196Z,0
2018-12-02T05:49:06.865Z,0
2018-12-02T05:50:15.795Z,0
2018-12-02T05:51:24.458Z,0
2018-12-02T05:52:33.134Z,0
2018-12-02T05:53:41.796Z,0
2018-12-02T05:54:50.477Z,0
2018-12-02T05:55:59.142Z,0
2018-12-02T05:57:07.868Z,0
2018-12-02T05:58:16.528Z,0
2018-12-02T05:59:25.208Z,0
2018-12-02T06:00:33.876Z,0
2018-12-02T06:01:42.551Z,0
2018-12-02T06:02:51.220Z,0
2018-12-02T06:04:00.143Z,0
2018-12-02T06:05:08.816Z,0
2018-12-02T06:06:17.494Z,0
2018-12-02T06:07:26.167Z,0
2018-12-02T06:08:34.826Z,0
2018-12-02T06:09:43.500Z,0
2018-12-02T06:10:52.431Z,0
2018-12-02T06:12:01.108Z,0
2018-12-02T06:13:09.767Z,0
2018-12-02T06:14:18.443Z,0
2018-12-02T06:15:27.117Z,0
2018-12-02T06:16:35.797Z,0
2018-12-02T06:17:44.463Z,0
2018-12-02T06:18:53.135Z,0
2018-12-02T06:20:06.990Z,0
2018-12-02T06:21:15.934Z,0
2018-12-02T06:22:24.608Z,0
2018-12-02T06:23:33.269Z,0
2018-12-02T06:24:42.247Z,0
2018-12-02T06:25:55.372Z,0
2018-12-02T06:27:04.060Z,0
2018-12-02T06:28:12.739Z,0
2018-12-02T06:29:21.418Z,0
2018-12-02T06:30:30.401Z,0
2018-12-02T06:31:39.081Z,0
2018-12-02T06:32:47.760Z,0
2018-12-02T06:33:56.440Z,0
2018-12-02T06:35:05.363Z,0
2018-12-02T06:36:14.045Z,0
2018-12-02T06:37:22.712Z,0
2018-12-02T06:38:31.394Z,0
2018-12-02T06:39:40.066Z,0
2018-12-02T06:40:48.738Z,0
2018-12-02T06:41:57.413Z,0
2018-12-02T06:43:06.098Z,0
2018-12-02T06:44:14.769Z,0
2018-12-02T06:45:23.433Z,0
2018-12-02T06:46:32.103Z,0
2018-12-02T06:47:40.772Z,0
2018-12-02T06:48:49.702Z,0
2018-12-02T06:49:58.368Z,0
2018-12-02T06:51:07.042Z,0
2018-12-02T06:52:15.703Z,0
2018-12-02T06:53:24.389Z,0
2018-12-02T06:54:33.062Z,0
2018-12-02T06:55:41.995Z,0
2018-12-02T06:56:50.913Z,0
2018-12-02T06:57:59.597Z,0
2018-12-02T06:59:08.271Z,0
2018-12-02T07:00:16.934Z,0
2018-12-02T07:01:25.617Z,0
2018-12-02T07:02:34.282Z,0
2018-12-02T07:03:42.966Z,0
2018-12-02T07:04:51.631Z,0
2018-12-02T07:06:00.303Z,0
2018-12-02T07:07:08.975Z,0
2018-12-02T07:08:17.908Z,0
2018-12-02T07:09:27.538Z,0
2018-12-02T07:10:36.247Z,0
2018-12-02T07:11:45.241Z,0
2018-12-02T07:12:53.986Z,0
2018-12-02T07:14:02.977Z,0
2018-12-02T07:15:12.596Z,0
2018-12-02T07:16:21.265Z,0
2018-12-02T07:17:29.941Z,0
2018-12-02T07:18:38.615Z,0
2018-12-02T07:19:47.580Z,0
2018-12-02T07:20:56.611Z,0
2018-12-02T07:22:05.290Z,0
2018-12-02T07:23:14.160Z,0
2018-12-02T07:24:22.852Z,0
2018-12-02T07:25:31.526Z,0
2018-12-02T07:26:40.192Z,0
2018-12-02T07:27:48.860Z,0
2018-12-02T07:28:57.535Z,0
2018-12-02T07:30:06.211Z,5
2018-12-02T07:31:14.878Z,5
2018-12-02T07:32:23.551Z,5
2018-12-02T07:33:32.219Z,5
2018-12-02T07:34:40.902Z,5
2018-12-02T07:35:49.622Z,5
2018-12-02T07:36:58.294Z,5
2018-12-02T07:38:06.966Z,5
2018-12-02T07:39:15.632Z,5
2018-12-02T07:40:24.320Z,5
2018-12-02T07:41:33.001Z,5
2018-12-02T07:42:41.669Z,5
2018-12-02T07:43:50.338Z,5
2018-12-02T07:44:59.027Z,5
2018-12-02T07:46:07.700Z,5
2018-12-02T07:47:16.371Z,5
2018-12-02T07:48:25.044Z,5
2018-12-02T07:49:33.719Z,5
2018-12-02T07:50:42.432Z,5
2018-12-02T07:51:51.378Z,5
2018-12-02T07:53:00.303Z,5
2018-12-02T07:54:08.985Z,5
2018-12-02T07:55:17.910Z,5
2018-12-02T07:56:26.582Z,5
2018-12-02T07:57:35.506Z,5
2018-12-02T07:58:44.169Z,5
2018-12-02T07:59:52.833Z,5
2018-12-02T08:01:01.515Z,5
2018-12-02T08:02:10.203Z,10
2018-12-02T08:03:18.874Z,10
2018-12-02T08:04:27.549Z,10
2018-12-02T08:05:36.243Z,10
2018-12-02T08:06:44.917Z,10
2018-12-02T08:07:53.594Z,10
2018-12-02T08:09:02.520Z,10
2018-12-02T08:10:11.205Z,10
2018-12-02T08:11:19.883Z,10
2018-12-02T08:12:28.559Z,10
2018-12-02T08:13:37.233Z,10
2018-12-02T08:14:45.906Z,10
2018-12-02T08:15:54.583Z,10
2018-12-02T08:17:03.254Z,10
2018-12-02T08:18:11.926Z,10
2018-12-02T08:19:20.856Z,10
2018-12-02T08:20:29.538Z,10
2018-12-02T08:21:38.209Z,5
2018-12-02T08:22:51.232Z,5
2018-12-02T08:24:00.253Z,5
2018-12-02T08:25:08.936Z,10
2018-12-02T08:26:17.605Z,5
2018-12-02T08:27:26.542Z,5
2018-12-02T08:28:35.215Z,5
2018-12-02T08:29:43.892Z,5
2018-12-02T08:30:52.818Z,10
2018-12-02T08:32:01.489Z,10
2018-12-02T08:33:11.061Z,10
2018-12-02T08:34:19.746Z,10
2018-12-02T08:35:28.682Z,10
2018-12-02T08:36:37.355Z,5
2018-12-02T08:37:46.026Z,5
2018-12-02T08:38:54.712Z,10
2018-12-02T08:40:03.642Z,10
2018-12-02T08:41:12.311Z,15
2018-12-02T08:42:20.984Z,20
2018-12-02T08:43:29.909Z,25
2018-12-02T08:44:38.584Z,25
2018-12-02T08:45:47.262Z,20
2018-12-02T08:46:55.942Z,20
2018-12-02T08:48:04.607Z,25
2018-12-02T08:49:13.548Z,20
2018-12-02T08:50:22.222Z,20
2018-12-02T08:51:31.177Z,20
2018-12-02T08:52:39.854Z,20
2018-12-02T08:53:48.527Z,25
2018-12-02T08:54:57.212Z,25
2018-12-02T08:56:05.894Z,25
2018-12-02T08:57:14.927Z,25
2018-12-02T08:58:23.613Z,25
2018-12-02T08:59:32.288Z,20
2018-12-02T09:00:41.231Z,25
2018-12-02T09:01:49.911Z,25
2018-12-02T09:02:58.582Z,25
2018-12-02T09:04:07.260Z,25
2018-12-02T09:05:16.194Z,30
2018-12-02T09:06:24.883Z,30
2018-12-02T09:07:33.550Z,25
2018-12-02T09:08:42.219Z,30
2018-12-02T09:09:50.888Z,35
2018-12-02T09:10:59.570Z,35
2018-12-02T09:12:08.511Z,35
2018-12-02T09:13:17.181Z,35
2018-12-02T09:14:25.870Z,35
2018-12-02T09:15:34.789Z,35
2018-12-02T09:16:43.484Z,30
2018-12-02T09:17:52.159Z,30
2018-12-02T09:19:00.838Z,30
2018-12-02T09:20:09.508Z,35
2018-12-02T09:21:18.187Z,35
2018-12-02T09:22:26.859Z,35
2018-12-02T09:23:35.552Z,40
2018-12-02T09:24:44.219Z,35
2018-12-02T09:25:52.895Z,40
2018-12-02T09:27:01.570Z,40
2018-12-02T09:28:10.244Z,35
2018-12-02T09:29:18.957Z,35
2018-12-02T09:30:27.626Z,35
2018-12-02T09:31:36.307Z,35
2018-12-02T09:32:44.979Z,30
2018-12-02T09:33:53.663Z,25
2018-12-02T09:35:02.327Z,25
2018-12-02T09:36:11.014Z,25
2018-12-02T09:37:19.678Z,30
2018-12-02T09:38:28.359Z,25
2018-12-02T09:39:37.023Z,25
2018-12-02T09:40:45.699Z,25
2018-12-02T09:41:54.371Z,20
2018-12-02T09:43:03.306Z,25
2018-12-02T09:44:11.975Z,25
2018-12-02T09:45:20.645Z,25
2018-12-02T09:46:29.327Z,25
2018-12-02T09:47:37.997Z,25
2018-12-02T09:48:46.687Z,30
2018-12-02T09:49:55.356Z,25
2018-12-02T09:51:04.049Z,30
2018-12-02T09:52:12.719Z,30
2018-12-02T09:53:21.406Z,35
2018-12-02T09:54:32.033Z,35
2018-12-02T09:55:40.707Z,45
2018-12-02T09:56:49.628Z,45
2018-12-02T09:57:58.310Z,45
2018-12-02T09:59:06.984Z,50
2018-12-02T10:00:15.666Z,50
2018-12-02T10:01:24.326Z,45
2018-12-02T10:02:33.002Z,40
2018-12-02T10:03:41.688Z,40
2018-12-02T10:04:50.379Z,35
2018-12-02T10:05:59.055Z,45
2018-12-02T10:07:07.719Z,40
2018-12-02T10:08:16.387Z,40
2018-12-02T10:09:25.060Z,40
2018-12-02T10:10:33.738Z,55
2018-12-02T10:11:42.404Z,60
2018-12-02T10:12:51.090Z,55
2018-12-02T10:13:59.766Z,60
2018-12-02T10:15:08.699Z,60
2018-12-02T10:16:22.404Z,60
2018-12-02T10:17:31.081Z,60
2018-12-02T10:18:39.755Z,60
2018-12-02T10:19:48.431Z,55
2018-12-02T10:20:57.103Z,60
2018-12-02T10:22:05.772Z,60
2018-12-02T10:23:14.451Z,60
2018-12-02T10:24:23.132Z,50
2018-12-02T10:25:31.812Z,50
2018-12-02T10:26:40.485Z,60
2018-12-02T10:27:49.163Z,60
2018-12-02T10:28:58.092Z,60
2018-12-02T10:30:06.769Z,60
2018-12-02T10:31:15.442Z,80
2018-12-02T10:32:24.119Z,75
2018-12-02T10:33:32.836Z,65
2018-12-02T10:34:41.512Z,50
2018-12-02T10:35:50.180Z,55
2018-12-02T10:36:58.859Z,50
2018-12-02T10:38:07.529Z,45
2018-12-02T10:39:16.207Z,45
2018-12-02T10:40:24.892Z,50
2018-12-02T10:41:33.573Z,60
2018-12-02T10:42:42.248Z,60
2018-12-02T10:43:50.925Z,60
2018-12-02T10:44:59.600Z,60
2018-12-02T10:46:08.276Z,65
2018-12-02T10:47:16.952Z,60
2018-12-02T10:48:25.631Z,60
2018-12-02T10:49:34.307Z,55
2018-12-02T10:50:42.979Z,55
2018-12-02T10:51:51.671Z,50
2018-12-02T10:53:00.341Z,55
2018-12-02T10:54:09.018Z,55
2018-12-02T10:55:17.957Z,55
2018-12-02T10:56:26.669Z,45
2018-12-02T10:57:35.339Z,45
2018-12-02T10:58:44.015Z,55
2018-12-02T10:59:52.693Z,45
2018-12-02T11:01:01.367Z,45
2018-12-02T11:02:10.050Z,40
2018-12-02T11:03:18.721Z,35
2018-12-02T11:04:27.401Z,40
2018-12-02T11:05:36.066Z,30
2018-12-02T11:06:44.993Z,30
2018-12-02T11:07:53.667Z,35
2018-12-02T11:09:02.351Z,45
2018-12-02T11:10:11.016Z,60
2018-12-02T11:11:19.698Z,70
2018-12-02T11:12:28.373Z,95
2018-12-02T11:13:37.054Z,115
2018-12-02T11:14:45.721Z,95
2018-12-02T11:15:54.400Z,60
2018-12-02T11:17:03.079Z,45
2018-12-02T11:18:12.269Z,40
2018-12-02T11:19:20.949Z,55
2018-12-02T11:20:29.615Z,60
2018-12-02T11:21:38.553Z,60
2018-12-02T11:22:47.485Z,65
2018-12-02T11:23:56.169Z,60
2018-12-02T11:25:04.831Z,60
2018-12-02T11:26:13.504Z,60
2018-12-02T11:27:22.170Z,60
2018-12-02T11:28:30.852Z,65
2018-12-02T11:29:39.529Z,65
2018-12-02T11:30:48.207Z,60
2018-12-02T11:31:56.888Z,55
2018-12-02T11:33:05.573Z,55
2018-12-02T11:34:14.258Z,60
2018-12-02T11:35:22.936Z,60
2018-12-02T11:36:31.604Z,55
2018-12-02T11:37:40.291Z,55
2018-12-02T11:38:49.240Z,45
2018-12-02T11:39:57.907Z,45
2018-12-02T11:41:06.848Z,40
2018-12-02T11:42:15.513Z,40
2018-12-02T11:43:24.193Z,35
2018-12-02T11:44:32.869Z,40
2018-12-02T11:45:41.811Z,50
2018-12-02T11:46:50.476Z,60
2018-12-02T11:47:59.170Z,55
2018-12-02T11:49:07.847Z,45
2018-12-02T11:50:16.525Z,40
2018-12-02T11:51:25.191Z,40
2018-12-02T11:52:33.871Z,40
2018-12-02T11:53:42.549Z,35
2018-12-02T11:54:51.224Z,40
2018-12-02T11:55:59.909Z,35
2018-12-02T11:57:08.789Z,35
2018-12-02T11:58:17.466Z,40
2018-12-02T11:59:26.164Z,35
2018-12-02T12:00:35.127Z,30
2018-12-02T12:01:43.802Z,30
2018-12-02T12:02:52.478Z,25
2018-12-02T12:04:01.166Z,25
2018-12-02T12:05:09.831Z,30
2018-12-02T12:06:18.517Z,25
2018-12-02T12:07:27.185Z,25
2018-12-02T12:08:35.857Z,25
2018-12-02T12:09:44.521Z,30
2018-12-02T12:10:53.210Z,30
2018-12-02T12:12:01.884Z,25
2018-12-02T12:13:10.562Z,25
2018-12-02T12:14:19.486Z,30
2018-12-02T12:15:28.159Z,30
2018-12-02T12:16:36.840Z,30
2018-12-02T12:17:45.518Z,35
2018-12-02T12:18:54.461Z,35
2018-12-02T12:20:03.130Z,35
2018-12-02T12:21:11.813Z,40
2018-12-02T12:22:20.485Z,40
2018-12-02T12:23:29.170Z,40
2018-12-02T12:24:38.094Z,45
2018-12-02T12:25:46.770Z,45
2018-12-02T12:26:55.447Z,55
2018-12-02T12:28:04.135Z,60
2018-12-02T12:29:12.808Z,55
2018-12-02T12:30:21.480Z,60
2018-12-02T12:31:30.154Z,70
2018-12-02T12:32:38.823Z,70
2018-12-02T12:33:47.508Z,70
2018-12-02T12:34:56.174Z,65
2018-12-02T12:36:04.852Z,60
2018-12-02T12:37:13.513Z,60
2018-12-02T12:38:22.415Z,60
2018-12-02T12:39:31.167Z,60
2018-12-02T12:40:39.845Z,65
2018-12-02T12:41:48.509Z,75
2018-12-02T12:42:57.209Z,70
2018-12-02T12:44:05.883Z,70
2018-12-02T12:45:14.569Z,70
2018-12-02T12:46:23.232Z,70
2018-12-02T12:47:31.906Z,70
2018-12-02T12:48:40.581Z,70
2018-12-02T12:49:49.255Z,65
2018-12-02T12:50:57.937Z,60
2018-12-02T12:52:06.644Z,60
2018-12-02T12:53:15.319Z,75
2018-12-02T12:54:23.989Z,55
2018-12-02T12:55:33.377Z,60
2018-12-02T12:56:42.046Z,55
2018-12-02T12:57:50.724Z,55
2018-12-02T12:58:59.388Z,65
2018-12-02T13:00:08.070Z,70
2018-12-02T13:01:16.746Z,75
2018-12-02T13:02:25.433Z,70
2018-12-02T13:03:34.108Z,70
2018-12-02T13:04:43.059Z,85
2018-12-02T13:05:51.987Z,65
2018-12-02T13:07:00.906Z,60
2018-12-02T13:08:09.618Z,60
2018-12-02T13:09:18.299Z,50
2018-12-02T13:10:26.986Z,45
2018-12-02T13:11:35.660Z,45
2018-12-02T13:12:44.338Z,50
2018-12-02T13:13:53.014Z,45
2018-12-02T13:15:01.700Z,50
2018-12-02T13:16:10.387Z,50
2018-12-02T13:17:19.310Z,45
2018-12-02T13:18:27.977Z,45
2018-12-02T13:19:36.662Z,50
2018-12-02T13:20:45.343Z,60
2018-12-02T13:21:54.019Z,60
2018-12-02T13:23:02.690Z,60
2018-12-02T13:24:11.363Z,65
2018-12-02T13:25:20.042Z,75
2018-12-02T13:26:28.726Z,95
2018-12-02T13:27:37.408Z,95
2018-12-02T13:28:46.343Z,90
2018-12-02T13:29:55.035Z,80
2018-12-02T13:31:03.969Z,70
2018-12-02T13:32:12.655Z,65
2018-12-02T13:33:21.333Z,55
2018-12-02T13:34:30.522Z,50
2018-12-02T13:35:39.449Z,55
2018-12-02T13:36:48.129Z,50
2018-12-02T13:37:56.834Z,40
2018-12-02T13:39:05.513Z,40
2018-12-02T13:40:14.309Z,40
2018-12-02T13:41:22.993Z,40
2018-12-02T13:42:31.987Z,35
2018-12-02T13:43:40.664Z,50
2018-12-02T13:44:49.333Z,45
2018-12-02T13:45:58.019Z,30
2018-12-02T13:47:06.705Z,30
2018-12-02T13:48:15.381Z,50
2018-12-02T13:49:24.060Z,30
2018-12-02T13:50:32.727Z,35
2018-12-02T13:51:41.431Z,30
2018-12-02T13:52:50.119Z,25
2018-12-02T13:53:58.795Z,25
2018-12-02T13:55:07.463Z,20
2018-12-02T13:56:16.403Z,25
2018-12-02T13:57:25.080Z,20
2018-12-02T13:58:33.758Z,20
2018-12-02T13:59:42.442Z,20
2018-12-02T14:00:51.122Z,15
2018-12-02T14:01:59.801Z,15
2018-12-02T14:03:08.474Z,20
2018-12-02T14:04:17.148Z,20
2018-12-02T14:05:25.837Z,25
2018-12-02T14:06:34.513Z,35
2018-12-02T14:07:43.197Z,50
2018-12-02T14:08:51.866Z,55
2018-12-02T14:10:00.869Z,50
2018-12-02T14:11:09.799Z,50
2018-12-02T14:12:18.527Z,40
2018-12-02T14:13:27.218Z,40
2018-12-02T14:14:35.907Z,40
2018-12-02T14:15:44.580Z,45
2018-12-02T14:16:53.255Z,40
2018-12-02T14:18:02.182Z,30
2018-12-02T14:19:11.176Z,25
2018-12-02T14:20:19.854Z,30
2018-12-02T14:21:28.535Z,25
2018-12-02T14:22:37.215Z,15
2018-12-02T14:23:45.882Z,10
2018-12-02T14:24:54.565Z,15
2018-12-02T14:26:03.241Z,15
2018-12-02T14:27:11.923Z,10
2018-12-02T14:28:20.601Z,10
2018-12-02T14:29:29.290Z,10
2018-12-02T14:30:37.954Z,10
2018-12-02T14:31:46.636Z,15
2018-12-02T14:32:55.298Z,20
2018-12-02T14:34:04.001Z,25
2018-12-02T14:35:12.686Z,25
2018-12-02T14:36:21.632Z,15
2018-12-02T14:37:30.305Z,15
2018-12-02T14:38:38.973Z,15
2018-12-02T14:39:47.650Z,15
2018-12-02T14:40:56.323Z,15
2018-12-02T14:42:05.003Z,15
2018-12-02T14:43:13.671Z,10
2018-12-02T14:44:22.353Z,20
2018-12-02T14:45:31.024Z,15
2018-12-02T14:46:39.712Z,10
2018-12-02T14:47:48.681Z,15
2018-12-02T14:48:57.369Z,15
2018-12-02T14:50:06.559Z,20
2018-12-02T14:51:15.241Z,15
2018-12-02T14:52:24.182Z,15
2018-12-02T14:53:32.861Z,10
2018-12-02T14:54:41.538Z,10
2018-12-02T14:55:50.214Z,5
2018-12-02T14:56:58.916Z,5
2018-12-02T14:58:07.593Z,5
2018-12-02T14:59:16.274Z,5
2018-12-02T15:00:24.946Z,5
2018-12-02T15:01:33.875Z,5
2018-12-02T15:02:42.548Z,5
2018-12-02T15:03:51.237Z,5
2018-12-02T15:05:00.177Z,5
2018-12-02T15:06:08.859Z,5
2018-12-02T15:07:17.548Z,5
2018-12-02T15:08:26.242Z,5
2018-12-02T15:09:35.174Z,5
2018-12-02T15:10:43.856Z,10
2018-12-02T15:11:52.581Z,10
2018-12-02T15:13:01.263Z,10
2018-12-02T15:14:10.641Z,10
2018-12-02T15:15:19.318Z,5
2018-12-02T15:16:28.251Z,5
2018-12-02T15:17:36.925Z,5
2018-12-02T15:18:45.606Z,5
2018-12-02T15:19:54.281Z,5
2018-12-02T15:21:02.960Z,5
2018-12-02T15:22:11.633Z,5
2018-12-02T15:23:20.313Z,0
2018-12-02T15:24:29.258Z,0
2018-12-02T15:25:38.188Z,0
2018-12-02T15:26:46.856Z,0
2018-12-02T15:27:55.790Z,0
2018-12-02T15:29:04.469Z,0
2018-12-02T15:30:13.150Z,0
2018-12-02T15:31:21.821Z,0
2018-12-02T15:32:30.505Z,0
2018-12-02T15:33:39.963Z,0
2018-12-02T15:34:48.651Z,0
2018-12-02T15:35:57.334Z,0
2018-12-02T15:37:06.008Z,0
2018-12-02T15:38:14.691Z,0
2018-12-02T15:39:23.367Z,0
2018-12-02T15:40:32.053Z,0
2018-12-02T15:41:40.728Z,0
2018-12-02T15:42:49.851Z,0
2018-12-02T15:43:58.527Z,0
2018-12-02T15:45:07.211Z,0
2018-12-02T15:46:15.894Z,0
2018-12-02T15:47:24.578Z,0
2018-12-02T15:48:34.247Z,0
2018-12-02T15:49:42.992Z,0
2018-12-02T15:50:56.918Z,0
2018-12-02T15:52:05.612Z,0
2018-12-02T15:53:14.291Z,0
2018-12-02T15:54:22.964Z,0
2018-12-02T15:55:31.653Z,0
2018-12-02T15:56:40.327Z,0
2018-12-02T15:57:49.009Z,0
2018-12-02T15:58:57.951Z,0
2018-12-02T16:00:06.885Z,0
2018-12-02T16:01:15.570Z,0
2018-12-02T16:02:24.506Z,0
2018-12-02T16:03:33.210Z,0
2018-12-02T16:04:41.891Z,0
2018-12-02T16:05:50.582Z,0
2018-12-02T16:06:59.255Z,0
2018-12-02T16:08:07.948Z,0
2018-12-02T16:09:17.240Z,0
2018-12-02T16:10:25.936Z,0
2018-12-02T16:11:34.867Z,0
2018-12-02T16:12:43.558Z,0
2018-12-02T16:13:52.241Z,0
2018-12-02T16:15:00.928Z,0
2018-12-02T16:16:09.663Z,0
2018-12-02T16:17:18.594Z,0
2018-12-02T16:18:27.294Z,0
2018-12-02T16:19:35.974Z,0
2018-12-02T16:20:44.649Z,0
2018-12-02T16:21:53.585Z,0
2018-12-02T16:23:02.523Z,0
2018-12-02T16:24:11.205Z,0
2018-12-02T16:25:19.880Z,0
2018-12-02T16:26:28.555Z,0
2018-12-02T16:27:37.231Z,0
2018-12-02T16:28:46.417Z,0
2018-12-02T16:29:55.092Z,0
2018-12-02T16:31:03.769Z,0
2018-12-02T16:32:12.700Z,0
2018-12-02T16:33:21.372Z,0
2018-12-02T16:34:30.481Z,0
2018-12-02T16:35:39.418Z,0
2018-12-02T16:36:48.096Z,0
2018-12-02T16:37:57.047Z,0
2018-12-02T16:39:05.730Z,0
2018-12-02T16:40:14.422Z,0
2018-12-02T16:41:23.087Z,0
2018-12-02T16:42:31.761Z,0